Terminal Aerodrome Forecast
Issued by NWS

Current Version | Previous Version | Text Only | Print | Product List | Glossary On
Versions: 1 2 3 4 5 6 7 8 9 10 11 12 13 14 15 16 17 18 19 20 21 22 23 24 25 26
000
FTUS41 KBUF 271200 AAA
TAFJHW
TAF AMD
KJHW 271247Z 2713/2812 31006KT P6SM VCSH SCT006 BKN015
      TEMPO 2713/2715 6SM -RADZ OVC006
     FM271500 31010KT P6SM VCSH OVC015
     FM272100 30009KT P6SM OVC025
     FM280500 31006KT 5SM BR OVC015
     FM280800 VRB04KT 2SM BR BKN015
      AMD LTD TO CLD VIS AND WIND=

USA.gov is the U.S. government's official web portal to all federal, state and local government web resources and services.